Northfield, Texas
Current Conditions -  °F | °C
As of 12:53 PM on Sunday 23 Nov 2014 (Local Time) from KCDS Reporting Station
Clear Clear  
Wind Chill: 62°   Ceiling: Unl
Heat Index: 62°   Visibility: 10mi
Dew Point: 35°   Wind: 31mph
Humidity: 37%   Direction: 340°NNW
Pressure: 29.5"   Gusts: 44mph
Location:  34.4383°N, 100.197°W
Report Text: KCDS 231853Z AUTO 34027G38KT 10SM CLR 17/02 A2950 RMK AO2 PK WND 35039/1838 SLP979 T01670017
Loading
Personal Weather Stations






























Interactive Weather Map New forecast layout! Learn more

10-Day Weather Forecast

Advertisements
Track Severe Weather on mobile